• Join FlightAware (Why Join?)
  • Login
  • US Flag 
12:08AM EST


 

Airport Tracker/Info


-or-


 

Live Flight TrackerFlight Track Log ✈ UCA4838 ✈ 13-May-2013 ✈ KALB - KEWR

Flight Track Log - Related Links

Times and Time Zones

All times are in EDT time to prevent confusion due to time zone crossing. See the UCA4838 flight status page for this flight to view local times or setup timezone preferences in your user account.

Time Position Orientation Groundspeed Altitude Reporting Facility
EDT Latitude Longitude Course Direction KTS MPH feet Rate Location/Type
09:35AM 42.7464 -73.8142 209° Southwest 122 140 1,000  Level Boston Center
09:36AM 42.7439 -73.8564 265° West 134 154 2,200 1,500 Climbing Boston Center
09:37AM 42.6997 -73.8808 202° Southwest 177 204 3,700 1,320 Climbing Boston Center
09:38AM 42.6575 -73.9139 210° Southwest 181 208 4,900 1,260 Climbing Boston Center
09:39AM 42.6072 -73.9436 204° Southwest 189 217 6,300 1,260 Climbing Boston Center
09:40AM 42.3689 -73.8716 209° Southwest  Level Estimated
09:40AM 42.5589 -73.9733 204° Southwest 195 224 7,500  Level Boston Center
09:41AM 42.5106 -74.0061 207° Southwest 198 228 8,800 1,200 Climbing Boston Center
09:42AM 42.4642 -74.0386 207° Southwest 193 222 10,000 540 Climbing Boston Center
09:43AM 42.4075 -74.0739 205° Southwest 220 253 10,000  Level Boston Center
09:43AM 42.3675 -74.0981 204° Southwest 255 293 10,000  Level Boston Center
09:44AM 42.3086 -74.1386 207° Southwest 255 293 10,000  Level Boston Center
09:45AM 42.2494 -74.1761 205° Southwest 249 287 10,000  Level Boston Center
09:46AM 42.1928 -74.2139 206° Southwest 243 280 10,000  Level Boston Center
09:47AM 42.1358 -74.2572 209° Southwest 243 280 10,000  Level Boston Center
09:48AM 42.0808 -74.2975 209° Southwest 238 274 10,000  Level Boston Center
09:49AM 42.0219 -74.3378 207° Southwest 238 274 10,000 -240 Level Boston Center
09:50AM 41.9608 -74.3722 203° Southwest 238 274 9,500 -660 Descending Boston Center
09:51AM 41.8853 -74.4006 196° South 253 291 8,600 -900 Descending Boston Center
09:52AM 41.8119 -74.4289 196° South 253 291 7,800 -840 Descending Boston Center
09:53AM 41.7508 -74.4575 199° South 253 291 7,000 -420 Descending Boston Center
09:54AM 41.6775 -74.4858 196° South 253 291 7,000 -180 Level Boston Center
09:56AM 41.5978 -74.5139 195° South 253 291 6,700 -480 Descending Boston Center
09:57AM 41.5389 -74.5397 198° South 247 284 6,000 -360 Descending Boston Center
09:58AM 41.4717 -74.5678 197° South 247 284 6,000  Level Boston Center
09:59AM 41.3667 -74.6000 193° South 222 255 6,000  Level New York TRACON
10:00AM 41.3167 -74.6333 207° Southwest 225 259 6,000 -120 Level New York TRACON
10:01AM 41.2500 -74.6000 159° South 228 262 5,800 -540 Descending New York TRACON
10:02AM 41.2000 -74.5333 135° Southeast 258 297 5,000 -480 Descending New York TRACON
10:03AM 41.1667 -74.4667 124° Southeast 255 293 5,000  Level New York TRACON
10:04AM 41.1167 -74.4167 143° Southeast 248 285 5,000  Level New York TRACON
10:05AM 41.0667 -74.3500 135° Southeast 247 284 5,000  Level New York TRACON
10:06AM 41.0333 -74.2833 124° Southeast 240 276 5,000 -180 Level New York TRACON
10:07AM 40.9833 -74.2167 135° Southeast 226 260 4,700 -540 Descending New York TRACON
10:08AM 40.9667 -74.1500 108° East 204 235 4,000 -360 Descending New York TRACON
10:09AM 40.9333 -74.1000 131° Southeast 186 214 4,000 -540 Level New York TRACON
10:10AM 40.8833 -74.0833 166° South 179 206 3,000 -720 Descending New York TRACON
10:11AM 40.8333 -74.0833 180° South 174 200 2,600 -420 Descending New York TRACON
10:12AM 40.8000 -74.1000 201° Southwest 173 199 2,200 -720 Descending New York TRACON
10:13AM 40.7500 -74.1333 207° Southwest 165 190 1,200 -900 Descending New York TRACON
10:14AM 40.7167 -74.1500 201° Southwest 124 143 400 -840 Descending New York TRACON